Bookmark and Share
Track history (hours):
 

Seattle Express

Last reported at 2014-Apr-20 20:33 UTC. Time now 2014-Apr-20 21:01 UTC.
Position N 51°49' E 003°23'.

Length 264.1 m; beam 32.3 m; draft 12.5 m.

Type: Ship (hazmat cat A). MMSI: 636090860.

NotesDate/timePositionNaut miles runAvg speedWind from/ knotsBaromVisibWave heightAir tempDewpointWater temp
2014-Apr-20 20:33N 51°49' E 003°23'0 0.0
2014-Apr-20 19:33N 51°49' E 003°23'0 0.0
2014-Apr-20 18:33N 51°49' E 003°23'0 0.1
2014-Apr-20 14:24N 51°49' E 003°22'0 0.0
2014-Apr-20 13:33N 51°49' E 003°22'0 0.0
2014-Apr-20 12:24N 51°49' E 003°22'0 0.0
2014-Apr-20 11:33N 51°49' E 003°22'0 0.0
2014-Apr-20 10:33N 51°49' E 003°22'0 0.0
2014-Apr-20 09:30N 51°49' E 003°22'0 0.0
2014-Apr-20 08:33N 51°49' E 003°22'0 0.1
2014-Apr-20 07:30N 51°49' E 003°22'0 0.2
2014-Apr-20 06:33N 51°49' E 003°22'0 0.0
2014-Apr-20 05:32N 51°49' E 003°22'0 0.1
2014-Apr-20 04:32N 51°49' E 003°22'0 0.2
2014-Apr-20 03:32N 51°49' E 003°22'0 0.1
2014-Apr-20 02:32N 51°49' E 003°22'0 0.0
2014-Apr-20 01:20N 51°49' E 003°22'0 0.0
2014-Apr-20 00:24N 51°49' E 003°22'0 0.0
2014-Apr-19 23:29N 51°49' E 003°22'0 0.0
2014-Apr-19 22:32N 51°49' E 003°22'0 0.0
2014-Apr-19 21:32N 51°49' E 003°22'0 0.0
2014-Apr-19 20:32N 51°49' E 003°22'0 0.0
2014-Apr-19 19:32N 51°49' E 003°22'0 0.0
2014-Apr-19 18:32N 51°49' E 003°22'0 0.2
2014-Apr-19 17:32N 51°49' E 003°23'0 0.0
2014-Apr-19 16:32N 51°49' E 003°23'0 0.1
2014-Apr-19 15:29N 51°49' E 003°23'0 0.0
2014-Apr-19 07:11N 51°49' E 003°22'0 0.2
2014-Apr-19 06:05N 51°49' E 003°23'0 0.3
2014-Apr-19 05:30N 51°50' E 003°23'5 5.4
2014-Apr-19 04:33N 51°54' E 003°20'56 7.5
2014-Apr-18 21:06N 52°48' E 003°45'5 7.6
2014-Apr-18 20:30N 52°52' E 003°50'6 6.9
2014-Apr-18 19:33N 52°56' E 003°58'6 6.4
2014-Apr-18 18:33N 53°00' E 004°06'6 6.2
2014-Apr-18 17:33N 53°04' E 004°14'7 6.6
2014-Apr-18 16:33N 53°09' E 004°22'20 8.1
2014-Apr-18 14:08N 53°27' E 004°34'4 7.2
2014-Apr-18 13:32N 53°29' E 004°40'8 7.9
2014-Apr-18 12:33N 53°32' E 004°52'8 7.7
2014-Apr-18 11:33N 53°35' E 005°05'7 7.0
2014-Apr-18 10:33N 53°37' E 005°16'6 6.3
2014-Apr-18 09:33N 53°39' E 005°26'6 6.1
2014-Apr-18 08:33N 53°41' E 005°36'6 5.7
2014-Apr-18 07:33N 53°42' E 005°45'6 6.1
2014-Apr-18 06:33N 53°44' E 005°55'7 7.1
2014-Apr-18 05:33N 53°46' E 006°06'26 8.3
2014-Apr-18 02:25N 53°54' E 006°49'7 8.3
2014-Apr-18 01:33N 53°56' E 007°01'8 7.6
2014-Apr-18 00:33N 53°58' E 007°13'7 6.9
2014-Apr-17 23:33N 53°59' E 007°25'6 6.5
2014-Apr-17 22:33N 54°01' E 007°35'6 6.3
2014-Apr-17 21:33N 54°02' E 007°46'7 6.8
2014-Apr-17 20:33N 54°01' E 007°57'7 7.1
2014-Apr-17 19:33N 54°01' E 008°09'1010.1
2014-Apr-17 18:33N 53°59' E 008°26'1313.2
2014-Apr-17 17:33N 53°52' E 008°45'1312.7
2014-Apr-17 16:33N 53°53' E 009°06'1010.1
2014-Apr-17 15:33N 53°49' E 009°22'1010.4
2014-Apr-17 14:34N 53°40' E 009°31'9 9.2
2014-Apr-17 13:33N 53°34' E 009°42'7 7.0
2014-Apr-17 12:34N 53°32' E 009°54'1 0.6
2014-Apr-17 11:31N 53°32' E 009°55'0 0.0
2014-Apr-17 10:31N 53°32' E 009°55'0 0.0
2014-Apr-17 09:31N 53°32' E 009°55'0 0.0
2014-Apr-17 08:31N 53°32' E 009°55'0 0.0
2014-Apr-17 07:31N 53°32' E 009°55'0 0.0
2014-Apr-17 06:28N 53°32' E 009°55'0 0.0
2014-Apr-17 05:31N 53°32' E 009°55'0 0.0
2014-Apr-17 04:31N 53°32' E 009°55'5 5.0
2014-Apr-17 03:33N 53°33' E 009°47'1211.5
2014-Apr-17 02:33N 53°40' E 009°31'1313.5
2014-Apr-17 01:34N 53°51' E 009°19'1211.9
2014-Apr-17 00:33N 53°51' E 008°58'1110.9
2014-Apr-16 23:34N 53°54' E 008°41'1414.1
2014-Apr-16 22:34N 53°59' E 008°19'8 7.9
2014-Apr-16 21:33N 54°02' E 008°06'2 2.4
2014-Apr-16 20:32N 54°04' E 008°07'0 0.2
2014-Apr-16 19:32N 54°04' E 008°06'0 0.1
2014-Apr-16 18:26N 54°04' E 008°06'0 0.1
2014-Apr-16 17:32N 54°04' E 008°06'0 0.0
2014-Apr-16 16:29N 54°04' E 008°06'0 0.0
2014-Apr-16 15:32N 54°04' E 008°06'0 0.0
2014-Apr-16 14:29N 54°04' E 008°06'0 0.3
2014-Apr-16 13:29N 54°04' E 008°07'0 0.0
2014-Apr-16 12:32N 54°04' E 008°07'0 0.0
2014-Apr-16 11:20N 54°04' E 008°07'0 0.0
2014-Apr-16 10:32N 54°04' E 008°07'0 0.0
2014-Apr-16 09:33N 54°04' E 008°07'7 7.0
2014-Apr-16 08:33N 54°00' E 007°57'1313.2
2014-Apr-16 07:33N 53°56' E 007°36'1312.8
2014-Apr-16 06:33N 53°53' E 007°15'1211.8
2014-Apr-16 05:33N 53°50' E 006°55'1111.1
2014-Apr-16 04:32N 53°47' E 006°37'1110.7
2014-Apr-16 03:32N 53°45' E 006°19'1010.6
2014-Apr-16 02:33N 53°42' E 006°02'1110.6
2014-Apr-16 01:33N 53°38' E 005°46'1010.5
2014-Apr-16 00:33N 53°34' E 005°29'1010.4
2014-Apr-15 23:33N 53°31' E 005°13'1110.6
2014-Apr-15 22:33N 53°27' E 004°56'1010.3
2014-Apr-15 21:33N 53°21' E 004°42'1211.2
2014-Apr-15 20:27N 53°10' E 004°32'1011.3
2014-Apr-15 19:33N 53°01' E 004°24'1211.8
2014-Apr-15 18:33N 52°51' E 004°14'1212.4
2014-Apr-15 17:33N 52°40' E 004°04'1212.4
2014-Apr-15 16:33N 52°29' E 003°54'1312.8
2014-Apr-15 15:33N 52°17' E 003°52'1212.2
2014-Apr-15 14:33N 52°05' E 003°54'10 4.9
2014-Apr-15 12:34N 51°57' E 004°05'1 0.7
2014-Apr-15 11:34N 51°58' E 004°04'0 0.0
2014-Apr-15 10:34N 51°58' E 004°04'0 0.0
2014-Apr-15 08:34N 51°58' E 004°04'0 0.0
2014-Apr-15 06:31N 51°58' E 004°04'0 0.0
2014-Apr-15 05:34N 51°58' E 004°04'0 0.0
2014-Apr-15 03:34N 51°58' E 004°04'0 0.0
2014-Apr-15 01:33N 51°58' E 004°04'0 0.0
2014-Apr-15 00:33N 51°58' E 004°04'0 0.0
2014-Apr-14 22:33N 51°58' E 004°04'0 0.0
2014-Apr-14 21:34N 51°58' E 004°04'0 0.0
2014-Apr-14 20:33N 51°58' E 004°04'0 0.0
2014-Apr-14 18:32N 51°58' E 004°04'5 5.0
2014-Apr-14 17:34N 52°00' E 003°57'9 9.0
2014-Apr-14 16:34N 51°59' E 003°43'3912.9
2014-Apr-14 13:31N 51°47' E 002°42'2914.8
2014-Apr-14 11:33N 51°25' E 002°12'1414.2
2014-Apr-14 10:33N 51°13' E 002°00'1514.7
2014-Apr-14 09:34N 51°04' E 001°42'5814.5
2014-Apr-14 05:34N 50°24' E 000°35'65715.8
2014-Apr-12 12:00N 42°48' W 010°54'8814.6 050 / 311020.0 5.4 15.5 4.8
2014-Apr-12 06:00N 41°30' W 011°48'8814.7 040 / 301017.510.8 12.0 8.3
2014-Apr-12 00:00N 40°12' W 012°42'48 8.0 050 / 251018.0 5.4 13.0 9.4
2014-Apr-11 18:00N 39°48' W 013°36'21535.9 040 / 231017.0 5.4 14.511.0
2014-Apr-11 12:00N 36°18' W 014°36'   040 / 181018.0 5.4 17.011.9

Dump ship's entire track history

sailing weather and tide predictions

Seattle Express — A8GU5 — position and weather